sensor_id;sensor_type;location;lat;lon;timestamp;pressure;altitude;pressure_sealevel;temperature;humidity
42603;BME280;28233;55.748;48.752;2024-03-08T00:00:29;98722.50;;;-3.75;58.93
42603;BME280;28233;55.748;48.752;2024-03-08T00:02:39;98717.94;;;-3.75;59.10
42603;BME280;28233;55.748;48.752;2024-03-08T00:04:42;98716.00;;;-3.79;58.48
42603;BME280;28233;55.748;48.752;2024-03-08T00:06:44;98716.25;;;-3.81;58.23
42603;BME280;28233;55.748;48.752;2024-03-08T00:08:48;98711.72;;;-3.80;58.45
42603;BME280;28233;55.748;48.752;2024-03-08T00:10:51;98705.78;;;-3.83;58.14
42603;BME280;28233;55.748;48.752;2024-03-08T00:12:54;98706.81;;;-3.84;58.50
42603;BME280;28233;55.748;48.752;2024-03-08T00:14:57;98701.44;;;-3.84;58.08
42603;BME280;28233;55.748;48.752;2024-03-08T00:16:59;98700.06;;;-3.86;57.41
42603;BME280;28233;55.748;48.752;2024-03-08T00:19:02;98690.41;;;-3.87;57.98
42603;BME280;28233;55.748;48.752;2024-03-08T00:21:05;98685.22;;;-3.94;57.79
42603;BME280;28233;55.748;48.752;2024-03-08T00:23:07;98697.03;;;-3.95;58.11
42603;BME280;28233;55.748;48.752;2024-03-08T00:25:10;98690.28;;;-3.97;57.79
42603;BME280;28233;55.748;48.752;2024-03-08T00:27:14;98685.09;;;-4.04;58.43
42603;BME280;28233;55.748;48.752;2024-03-08T00:29:18;98688.56;;;-4.04;58.07
42603;BME280;28233;55.748;48.752;2024-03-08T00:31:21;98676.56;;;-4.18;58.55
42603;BME280;28233;55.748;48.752;2024-03-08T00:33:24;98683.38;;;-4.10;58.24
42603;BME280;28233;55.748;48.752;2024-03-08T00:35:27;98689.81;;;-4.11;58.27
42603;BME280;28233;55.748;48.752;2024-03-08T00:37:29;98685.47;;;-4.12;58.07
42603;BME280;28233;55.748;48.752;2024-03-08T00:39:32;98690.63;;;-4.11;58.21
42603;BME280;28233;55.748;48.752;2024-03-08T00:41:35;98679.81;;;-4.16;58.63
42603;BME280;28233;55.748;48.752;2024-03-08T00:43:38;98675.25;;;-4.15;58.88
42603;BME280;28233;55.748;48.752;2024-03-08T00:45:41;98675.50;;;-4.17;58.24
42603;BME280;28233;55.748;48.752;2024-03-08T00:47:47;98676.00;;;-4.20;58.74
42603;BME280;28233;55.748;48.752;2024-03-08T00:49:50;98677.31;;;-4.22;58.77
42603;BME280;28233;55.748;48.752;2024-03-08T00:51:54;98666.00;;;-4.25;58.54
42603;BME280;28233;55.748;48.752;2024-03-08T00:53:56;98668.69;;;-4.25;58.88
42603;BME280;28233;55.748;48.752;2024-03-08T00:55:59;98657.31;;;-4.32;58.52
42603;BME280;28233;55.748;48.752;2024-03-08T00:58:02;98660.00;;;-4.32;59.06
42603;BME280;28233;55.748;48.752;2024-03-08T01:00:06;98657.31;;;-4.32;58.93
42603;BME280;28233;55.748;48.752;2024-03-08T01:02:15;98655.69;;;-4.33;58.90
42603;BME280;28233;55.748;48.752;2024-03-08T01:04:19;98663.19;;;-4.35;58.94
42603;BME280;28233;55.748;48.752;2024-03-08T01:06:23;98652.13;;;-4.38;58.85
42603;BME280;28233;55.748;48.752;2024-03-08T01:08:27;98650.16;;;-4.43;59.21
42603;BME280;28233;55.748;48.752;2024-03-08T01:10:30;98648.56;;;-4.44;59.02
42603;BME280;28233;55.748;48.752;2024-03-08T01:12:33;98637.19;;;-4.51;59.05
42603;BME280;28233;55.748;48.752;2024-03-08T01:14:35;98642.06;;;-4.48;59.33
42603;BME280;28233;55.748;48.752;2024-03-08T01:16:38;98632.41;;;-4.49;58.81
42603;BME280;28233;55.748;48.752;2024-03-08T01:18:41;98627.84;;;-4.49;59.51
42603;BME280;28233;55.748;48.752;2024-03-08T01:20:44;98625.16;;;-4.49;59.55
42603;BME280;28233;55.748;48.752;2024-03-08T01:22:47;98622.22;;;-4.47;59.47
42603;BME280;28233;55.748;48.752;2024-03-08T01:24:49;98616.84;;;-4.47;59.40
42603;BME280;28233;55.748;48.752;2024-03-08T01:26:52;98614.16;;;-4.47;59.57
42603;BME280;28233;55.748;48.752;2024-03-08T01:28:55;98614.69;;;-4.50;59.21
42603;BME280;28233;55.748;48.752;2024-03-08T01:30:58;98606.63;;;-4.50;58.91
42603;BME280;28233;55.748;48.752;2024-03-08T01:33:01;98609.56;;;-4.52;59.31
42603;BME280;28233;55.748;48.752;2024-03-08T01:35:05;98606.88;;;-4.52;59.57
42603;BME280;28233;55.748;48.752;2024-03-08T01:37:08;98591.03;;;-4.53;58.63
42603;BME280;28233;55.748;48.752;2024-03-08T01:39:11;98593.00;;;-4.49;59.08
42603;BME280;28233;55.748;48.752;2024-03-08T01:41:14;98597.78;;;-4.51;58.83
42603;BME280;28233;55.748;48.752;2024-03-08T01:43:26;98586.00;;;-4.50;58.31
42603;BME280;28233;55.748;48.752;2024-03-08T01:45:30;98586.81;;;-4.49;58.57
42603;BME280;28233;55.748;48.752;2024-03-08T01:47:37;98585.19;;;-4.50;58.58
42603;BME280;28233;55.748;48.752;2024-03-08T01:49:40;98579.81;;;-4.50;58.59
42603;BME280;28233;55.748;48.752;2024-03-08T01:51:43;98585.69;;;-4.53;58.39
42603;BME280;28233;55.748;48.752;2024-03-08T01:53:47;98575.13;;;-4.60;58.67
42603;BME280;28233;55.748;48.752;2024-03-08T01:55:54;98589.97;;;-4.52;58.55
42603;BME280;28233;55.748;48.752;2024-03-08T01:57:59;98584.78;;;-4.59;58.37
42603;BME280;28233;55.748;48.752;2024-03-08T02:00:02;98583.16;;;-4.60;58.57
42603;BME280;28233;55.748;48.752;2024-03-08T02:02:08;98574.31;;;-4.60;58.66
42603;BME280;28233;55.748;48.752;2024-03-08T02:04:13;98565.72;;;-4.62;58.70
42603;BME280;28233;55.748;48.752;2024-03-08T02:06:16;98563.84;;;-4.62;59.01
42603;BME280;28233;55.748;48.752;2024-03-08T02:08:20;98568.63;;;-4.64;58.68
42603;BME280;28233;55.748;48.752;2024-03-08T02:10:25;98565.94;;;-4.64;58.81
42603;BME280;28233;55.748;48.752;2024-03-08T02:12:28;98561.81;;;-4.72;59.01
42603;BME280;28233;55.748;48.752;2024-03-08T02:14:31;98559.06;;;-4.77;59.25
42603;BME280;28233;55.748;48.752;2024-03-08T02:16:34;98571.97;;;-4.74;59.25
42603;BME280;28233;55.748;48.752;2024-03-08T02:18:37;98564.16;;;-4.75;59.74
42603;BME280;28233;55.748;48.752;2024-03-08T02:20:43;98549.41;;;-4.78;59.74
42603;BME280;28233;55.748;48.752;2024-03-08T02:22:46;98550.22;;;-4.77;59.71
42603;BME280;28233;55.748;48.752;2024-03-08T02:24:49;98544.94;;;-4.72;59.71
42603;BME280;28233;55.748;48.752;2024-03-08T02:26:52;98543.63;;;-4.70;59.56
42603;BME280;28233;55.748;48.752;2024-03-08T02:28:56;98532.91;;;-4.70;59.50
42603;BME280;28233;55.748;48.752;2024-03-08T02:30:58;98534.34;;;-4.62;59.63
42603;BME280;28233;55.748;48.752;2024-03-08T02:33:01;98540.53;;;-4.61;59.51
42603;BME280;28233;55.748;48.752;2024-03-08T02:35:04;98535.44;;;-4.63;59.26
42603;BME280;28233;55.748;48.752;2024-03-08T02:37:08;98531.91;;;-4.63;59.54
42603;BME280;28233;55.748;48.752;2024-03-08T02:39:11;98536.81;;;-4.60;59.40
42603;BME280;28233;55.748;48.752;2024-03-08T02:41:14;98530.63;;;-4.61;59.17
42603;BME280;28233;55.748;48.752;2024-03-08T02:43:19;98528.44;;;-4.64;59.39
42603;BME280;28233;55.748;48.752;2024-03-08T02:45:22;98537.28;;;-4.63;59.12
42603;BME280;28233;55.748;48.752;2024-03-08T02:47:25;98527.63;;;-4.64;59.08
42603;BME280;28233;55.748;48.752;2024-03-08T02:49:29;98532.47;;;-4.61;58.88
42603;BME280;28233;55.748;48.752;2024-03-08T02:51:33;98530.63;;;-4.61;58.86
42603;BME280;28233;55.748;48.752;2024-03-08T02:53:37;98534.06;;;-4.65;59.85
42603;BME280;28233;55.748;48.752;2024-03-08T02:55:41;98527.06;;;-4.67;59.54
42603;BME280;28233;55.748;48.752;2024-03-08T02:57:44;98531.59;;;-4.67;59.72
42603;BME280;28233;55.748;48.752;2024-03-08T02:59:49;98527.06;;;-4.67;59.53
42603;BME280;28233;55.748;48.752;2024-03-08T03:01:52;98528.94;;;-4.67;59.64
42603;BME280;28233;55.748;48.752;2024-03-08T03:03:55;98524.94;;;-4.64;59.73
42603;BME280;28233;55.748;48.752;2024-03-08T03:05:58;98528.69;;;-4.65;59.50
42603;BME280;28233;55.748;48.752;2024-03-08T03:08:01;98511.78;;;-4.66;59.58
42603;BME280;28233;55.748;48.752;2024-03-08T03:10:06;98511.47;;;-4.70;59.67
42603;BME280;28233;55.748;48.752;2024-03-08T03:12:09;98514.97;;;-4.69;59.90
42603;BME280;28233;55.748;48.752;2024-03-08T03:14:12;98509.03;;;-4.71;59.21
42603;BME280;28233;55.748;48.752;2024-03-08T03:16:19;98506.03;;;-4.75;59.52
42603;BME280;28233;55.748;48.752;2024-03-08T03:18:25;98497.69;;;-4.78;59.55
42603;BME280;28233;55.748;48.752;2024-03-08T03:20:30;98498.75;;;-4.79;59.52
42603;BME280;28233;55.748;48.752;2024-03-08T03:22:40;98505.94;;;-4.80;59.87
42603;BME280;28233;55.748;48.752;2024-03-08T03:24:43;98502.97;;;-4.83;59.30
42603;BME280;28233;55.748;48.752;2024-03-08T03:26:46;98484.72;;;-4.86;60.08
42603;BME280;28233;55.748;48.752;2024-03-08T03:28:51;98491.38;;;-4.89;60.45
42603;BME280;28233;55.748;48.752;2024-03-08T03:30:54;98488.44;;;-4.88;60.64
42603;BME280;28233;55.748;48.752;2024-03-08T03:32:56;98488.44;;;-4.88;60.15
42603;BME280;28233;55.748;48.752;2024-03-08T03:35:03;98484.88;;;-4.93;60.16
42603;BME280;28233;55.748;48.752;2024-03-08T03:37:07;98484.63;;;-4.92;60.88
42603;BME280;28233;55.748;48.752;2024-03-08T03:39:16;98481.94;;;-4.92;60.54
42603;BME280;28233;55.748;48.752;2024-03-08T03:41:19;98476.34;;;-4.90;60.98
42603;BME280;28233;55.748;48.752;2024-03-08T03:43:22;98472.34;;;-4.88;60.94
42603;BME280;28233;55.748;48.752;2024-03-08T03:45:24;98480.72;;;-4.84;60.78
42603;BME280;28233;55.748;48.752;2024-03-08T03:47:27;98478.13;;;-4.79;60.47
42603;BME280;28233;55.748;48.752;2024-03-08T03:49:30;98467.69;;;-4.75;60.24
42603;BME280;28233;55.748;48.752;2024-03-08T03:51:33;98467.16;;;-4.77;59.87
42603;BME280;28233;55.748;48.752;2024-03-08T03:53:36;98466.09;;;-4.76;60.14
42603;BME280;28233;55.748;48.752;2024-03-08T03:55:38;98465.59;;;-4.73;59.90
42603;BME280;28233;55.748;48.752;2024-03-08T03:57:43;98471.00;;;-4.68;59.93
42603;BME280;28233;55.748;48.752;2024-03-08T03:59:48;98457.38;;;-4.67;60.13
42603;BME280;28233;55.748;48.752;2024-03-08T04:01:51;98456.84;;;-4.63;59.83
42603;BME280;28233;55.748;48.752;2024-03-08T04:03:54;98469.78;;;-4.60;59.62
42603;BME280;28233;55.748;48.752;2024-03-08T04:05:56;98458.78;;;-4.59;59.85
42603;BME280;28233;55.748;48.752;2024-03-08T04:07:59;98472.28;;;-4.54;59.89
42603;BME280;28233;55.748;48.752;2024-03-08T04:10:03;98464.78;;;-4.52;59.57
42603;BME280;28233;55.748;48.752;2024-03-08T04:12:06;98461.84;;;-4.50;58.93
42603;BME280;28233;55.748;48.752;2024-03-08T04:14:10;98450.00;;;-4.54;58.65
42603;BME280;28233;55.748;48.752;2024-03-08T04:16:12;98463.72;;;-4.51;58.92
42603;BME280;28233;55.748;48.752;2024-03-08T04:18:15;98460.03;;;-4.44;59.25
42603;BME280;28233;55.748;48.752;2024-03-08T04:20:18;98453.06;;;-4.46;59.41
42603;BME280;28233;55.748;48.752;2024-03-08T04:22:21;98459.84;;;-4.38;58.47
42603;BME280;28233;55.748;48.752;2024-03-08T04:24:23;98454.31;;;-4.31;58.68
42603;BME280;28233;55.748;48.752;2024-03-08T04:26:26;98435.59;;;-4.26;58.17
42603;BME280;28233;55.748;48.752;2024-03-08T04:28:29;98448.56;;;-4.18;57.96
42603;BME280;28233;55.748;48.752;2024-03-08T04:30:32;98452.59;;;-4.15;57.97
42603;BME280;28233;55.748;48.752;2024-03-08T04:32:35;98445.13;;;-4.13;58.36
42603;BME280;28233;55.748;48.752;2024-03-08T04:34:38;98454.53;;;-4.11;57.74
42603;BME280;28233;55.748;48.752;2024-03-08T04:36:43;98441.97;;;-4.05;58.00
42603;BME280;28233;55.748;48.752;2024-03-08T04:38:46;98430.75;;;-4.02;57.54
42603;BME280;28233;55.748;48.752;2024-03-08T04:40:49;98432.69;;;-3.97;57.28
42603;BME280;28233;55.748;48.752;2024-03-08T04:42:52;98428.41;;;-3.93;58.26
42603;BME280;28233;55.748;48.752;2024-03-08T04:44:55;98413.63;;;-3.96;58.28
42603;BME280;28233;55.748;48.752;2024-03-08T04:46:58;98417.47;;;-3.87;58.08
42603;BME280;28233;55.748;48.752;2024-03-08T04:49:03;98413.50;;;-3.79;57.90
42603;BME280;28233;55.748;48.752;2024-03-08T04:51:05;98414.88;;;-3.76;57.57
42603;BME280;28233;55.748;48.752;2024-03-08T04:53:08;98421.81;;;-3.80;56.94
42603;BME280;28233;55.748;48.752;2024-03-08T04:55:11;98418.63;;;-3.77;57.26
42603;BME280;28233;55.748;48.752;2024-03-08T04:57:14;98415.94;;;-3.77;57.09
42603;BME280;28233;55.748;48.752;2024-03-08T04:59:17;98415.94;;;-3.77;57.24
42603;BME280;28233;55.748;48.752;2024-03-08T05:01:20;98413.84;;;-3.70;56.74
42603;BME280;28233;55.748;48.752;2024-03-08T05:03:23;98413.25;;;-3.77;56.87
42603;BME280;28233;55.748;48.752;2024-03-08T05:05:29;98425.66;;;-3.71;56.48
42603;BME280;28233;55.748;48.752;2024-03-08T05:07:32;98414.94;;;-3.71;56.84
42603;BME280;28233;55.748;48.752;2024-03-08T05:09:35;98419.47;;;-3.72;56.80
42603;BME280;28233;55.748;48.752;2024-03-08T05:11:40;98409.03;;;-3.68;56.46
42603;BME280;28233;55.748;48.752;2024-03-08T05:13:43;98406.16;;;-3.62;56.93
42603;BME280;28233;55.748;48.752;2024-03-08T05:15:50;98404.53;;;-3.57;57.22
42603;BME280;28233;55.748;48.752;2024-03-08T05:17:53;98397.59;;;-3.53;57.17
42603;BME280;28233;55.748;48.752;2024-03-08T05:19:56;98404.13;;;-3.44;57.61
42603;BME280;28233;55.748;48.752;2024-03-08T05:22:02;98402.56;;;-3.35;57.06
42603;BME280;28233;55.748;48.752;2024-03-08T05:24:05;98399.13;;;-3.30;56.87
42603;BME280;28233;55.748;48.752;2024-03-08T05:26:08;98397.53;;;-3.26;56.57
42603;BME280;28233;55.748;48.752;2024-03-08T05:28:11;98401.91;;;-3.15;56.57
42603;BME280;28233;55.748;48.752;2024-03-08T05:30:14;98388.19;;;-3.13;55.69
42603;BME280;28233;55.748;48.752;2024-03-08T05:32:18;98391.75;;;-3.08;55.28
42603;BME280;28233;55.748;48.752;2024-03-08T05:34:21;98396.59;;;-3.05;55.26
42603;BME280;28233;55.748;48.752;2024-03-08T05:36:24;98388.31;;;-2.93;54.85
42603;BME280;28233;55.748;48.752;2024-03-08T05:38:28;98384.59;;;-2.82;54.63
42603;BME280;28233;55.748;48.752;2024-03-08T05:40:31;98374.19;;;-2.68;53.84
42603;BME280;28233;55.748;48.752;2024-03-08T05:42:37;98378.25;;;-2.60;53.72
42603;BME280;28233;55.748;48.752;2024-03-08T05:44:39;98379.59;;;-2.52;53.17
42603;BME280;28233;55.748;48.752;2024-03-08T05:46:43;98375.31;;;-2.48;52.54
42603;BME280;28233;55.748;48.752;2024-03-08T05:48:45;98370.50;;;-2.36;52.61
42603;BME280;28233;55.748;48.752;2024-03-08T05:50:49;98372.69;;;-2.28;52.26
42603;BME280;28233;55.748;48.752;2024-03-08T05:52:51;98380.22;;;-2.20;51.76
42603;BME280;28233;55.748;48.752;2024-03-08T05:54:54;98366.50;;;-2.08;51.81
42603;BME280;28233;55.748;48.752;2024-03-08T05:56:57;98360.34;;;-2.08;51.85
42603;BME280;28233;55.748;48.752;2024-03-08T05:59:00;98365.72;;;-1.98;51.28
42603;BME280;28233;55.748;48.752;2024-03-08T06:01:03;98368.94;;;-1.96;51.16
42603;BME280;28233;55.748;48.752;2024-03-08T06:03:48;98356.84;;;-2.04;50.76
42603;BME280;28233;55.748;48.752;2024-03-08T06:05:58;98357.38;;;-1.97;51.23
42603;BME280;28233;55.748;48.752;2024-03-08T06:08:01;98358.97;;;-1.91;50.58
42603;BME280;28233;55.748;48.752;2024-03-08T06:10:04;98363.31;;;-1.84;50.42
42603;BME280;28233;55.748;48.752;2024-03-08T06:12:09;98361.41;;;-1.84;50.47
42603;BME280;28233;55.748;48.752;2024-03-08T06:14:13;98362.75;;;-1.81;50.55
42603;BME280;28233;55.748;48.752;2024-03-08T06:16:18;98361.41;;;-1.79;50.50
42603;BME280;28233;55.748;48.752;2024-03-08T06:18:21;98352.25;;;-1.73;50.67
42603;BME280;28233;55.748;48.752;2024-03-08T06:20:24;98354.69;;;-1.71;50.06
42603;BME280;28233;55.748;48.752;2024-03-08T06:22:28;98350.38;;;-1.72;50.28
42603;BME280;28233;55.748;48.752;2024-03-08T06:24:32;98348.75;;;-1.58;50.66
42603;BME280;28233;55.748;48.752;2024-03-08T06:26:36;98336.34;;;-1.49;50.64
42603;BME280;28233;55.748;48.752;2024-03-08T06:28:41;98344.16;;;-1.32;51.07
42603;BME280;28233;55.748;48.752;2024-03-08T06:30:44;98348.13;;;-1.14;51.27
42603;BME280;28233;55.748;48.752;2024-03-08T06:32:47;98346.53;;;-1.15;51.47
42603;BME280;28233;55.748;48.752;2024-03-08T06:34:49;98358.06;;;-1.04;52.09
42603;BME280;28233;55.748;48.752;2024-03-08T06:36:52;98344.88;;;-1.05;52.94
42603;BME280;28233;55.748;48.752;2024-03-08T06:38:58;98344.38;;;-1.13;53.78
42603;BME280;28233;55.748;48.752;2024-03-08T06:41:00;98351.91;;;-1.15;55.10
42603;BME280;28233;55.748;48.752;2024-03-08T06:43:06;98348.38;;;-1.05;56.16
42603;BME280;28233;55.748;48.752;2024-03-08T06:45:09;98339.19;;;-0.99;56.54
42603;BME280;28233;55.748;48.752;2024-03-08T06:47:12;98340.63;;;-1.22;56.12
42603;BME280;28233;55.748;48.752;2024-03-08T06:49:15;98340.88;;;-1.18;57.70
42603;BME280;28233;55.748;48.752;2024-03-08T06:51:18;98337.94;;;-1.22;57.10
42603;BME280;28233;55.748;48.752;2024-03-08T06:53:21;98338.69;;;-1.11;57.82
42603;BME280;28233;55.748;48.752;2024-03-08T06:55:28;98331.91;;;-0.93;58.37
42603;BME280;28233;55.748;48.752;2024-03-08T06:57:31;98331.84;;;-0.83;58.21
42603;BME280;28233;55.748;48.752;2024-03-08T06:59:34;98322.38;;;-0.80;57.45
42603;BME280;28233;55.748;48.752;2024-03-08T07:01:38;98329.91;;;-0.67;57.18
42603;BME280;28233;55.748;48.752;2024-03-08T07:03:44;98329.03;;;-0.57;56.24
42603;BME280;28233;55.748;48.752;2024-03-08T07:05:47;98328.47;;;-0.54;55.16
42603;BME280;28233;55.748;48.752;2024-03-08T07:07:50;98314.19;;;-0.55;54.76
42603;BME280;28233;55.748;48.752;2024-03-08T07:09:53;98320.16;;;-0.63;54.71
42603;BME280;28233;55.748;48.752;2024-03-08T07:11:57;98319.75;;;-0.41;55.93
42603;BME280;28233;55.748;48.752;2024-03-08T07:14:00;98314.03;;;-0.29;55.01
42603;BME280;28233;55.748;48.752;2024-03-08T07:16:05;98310.75;;;-0.21;54.73
42603;BME280;28233;55.748;48.752;2024-03-08T07:18:10;98305.78;;;-0.09;53.57
42603;BME280;28233;55.748;48.752;2024-03-08T07:20:17;98320.63;;;-0.06;54.10
42603;BME280;28233;55.748;48.752;2024-03-08T07:22:21;98312.56;;;-0.11;53.24
42603;BME280;28233;55.748;48.752;2024-03-08T07:24:26;98313.09;;;-0.09;54.18
42603;BME280;28233;55.748;48.752;2024-03-08T07:26:40;98301.94;;;-0.03;54.55
42603;BME280;28233;55.748;48.752;2024-03-08T07:28:43;98300.03;;;0.03;55.07
42603;BME280;28233;55.748;48.752;2024-03-08T07:30:46;98303.44;;;0.14;55.19
42603;BME280;28233;55.748;48.752;2024-03-08T07:32:49;98289.34;;;-0.12;54.77
42603;BME280;28233;55.748;48.752;2024-03-08T07:34:52;98295.19;;;0.00;55.20
42603;BME280;28233;55.748;48.752;2024-03-08T07:36:55;98299.50;;;0.01;55.41
42603;BME280;28233;55.748;48.752;2024-03-08T07:38:59;98304.16;;;-0.10;54.85
42603;BME280;28233;55.748;48.752;2024-03-08T07:41:02;98302.53;;;-0.06;54.57
42603;BME280;28233;55.748;48.752;2024-03-08T07:43:08;98296.03;;;-0.05;54.36
42603;BME280;28233;55.748;48.752;2024-03-08T07:45:11;98297.38;;;-0.02;54.56
42603;BME280;28233;55.748;48.752;2024-03-08T07:47:15;98298.16;;;-0.02;53.78
42603;BME280;28233;55.748;48.752;2024-03-08T07:49:21;98301.34;;;0.06;53.45
42603;BME280;28233;55.748;48.752;2024-03-08T07:51:24;98296.75;;;0.06;52.85
42603;BME280;28233;55.748;48.752;2024-03-08T07:53:27;98290.28;;;0.07;52.64
42603;BME280;28233;55.748;48.752;2024-03-08T07:55:29;98296.72;;;0.11;52.03
42603;BME280;28233;55.748;48.752;2024-03-08T07:57:34;98293.22;;;0.11;52.31
42603;BME280;28233;55.748;48.752;2024-03-08T07:59:36;98280.28;;;0.08;52.37
42603;BME280;28233;55.748;48.752;2024-03-08T08:01:39;98277.75;;;0.16;51.86
42603;BME280;28233;55.748;48.752;2024-03-08T08:03:42;98283.94;;;0.22;51.84
42603;BME280;28233;55.748;48.752;2024-03-08T08:05:45;98283.31;;;0.30;52.12
42603;BME280;28233;55.748;48.752;2024-03-08T08:07:48;98279.66;;;0.45;51.69
42603;BME280;28233;55.748;48.752;2024-03-08T08:09:54;98275.34;;;0.68;51.60
42603;BME280;28233;55.748;48.752;2024-03-08T08:11:56;98275.91;;;0.89;50.92
42603;BME280;28233;55.748;48.752;2024-03-08T08:13:59;98277.25;;;0.92;51.33
42603;BME280;28233;55.748;48.752;2024-03-08T08:16:03;98279.91;;;0.97;51.77
42603;BME280;28233;55.748;48.752;2024-03-08T08:18:08;98258.56;;;1.14;51.53
42603;BME280;28233;55.748;48.752;2024-03-08T08:20:12;98267.88;;;1.27;52.26
42603;BME280;28233;55.748;48.752;2024-03-08T08:22:15;98264.75;;;1.39;52.14
42603;BME280;28233;55.748;48.752;2024-03-08T08:24:18;98265.03;;;1.56;52.51
42603;BME280;28233;55.748;48.752;2024-03-08T08:26:23;98267.06;;;1.64;52.83
42603;BME280;28233;55.748;48.752;2024-03-08T08:28:28;98263.41;;;1.55;52.78
42603;BME280;28233;55.748;48.752;2024-03-08T08:30:32;98258.91;;;1.51;54.01
42603;BME280;28233;55.748;48.752;2024-03-08T08:32:38;98269.41;;;1.52;54.57
42603;BME280;28233;55.748;48.752;2024-03-08T08:34:50;98262.84;;;1.39;54.05
42603;BME280;28233;55.748;48.752;2024-03-08T08:36:53;98254.28;;;1.32;55.22
42603;BME280;28233;55.748;48.752;2024-03-08T08:38:57;98259.53;;;1.23;54.79
42603;BME280;28233;55.748;48.752;2024-03-08T08:41:00;98249.00;;;1.22;55.71
42603;BME280;28233;55.748;48.752;2024-03-08T08:43:05;98260.84;;;1.26;55.60
42603;BME280;28233;55.748;48.752;2024-03-08T08:45:08;98268.75;;;1.22;55.31
42603;BME280;28233;55.748;48.752;2024-03-08T08:47:18;98257.06;;;1.27;56.07
42603;BME280;28233;55.748;48.752;2024-03-08T08:49:21;98252.00;;;1.20;55.44
42603;BME280;28233;55.748;48.752;2024-03-08T08:51:24;98248.78;;;1.18;55.88
42603;BME280;28233;55.748;48.752;2024-03-08T08:53:30;98252.38;;;1.14;57.10
42603;BME280;28233;55.748;48.752;2024-03-08T08:55:33;98252.75;;;1.26;56.37
42603;BME280;28233;55.748;48.752;2024-03-08T08:57:38;98248.78;;;1.56;57.33
42603;BME280;28233;55.748;48.752;2024-03-08T08:59:41;98243.63;;;1.74;56.62
42603;BME280;28233;55.748;48.752;2024-03-08T09:01:43;98246.72;;;1.86;57.44
42603;BME280;28233;55.748;48.752;2024-03-08T09:03:49;98242.75;;;2.11;56.46
42603;BME280;28233;55.748;48.752;2024-03-08T09:05:52;98244.94;;;2.42;54.94
42603;BME280;28233;55.748;48.752;2024-03-08T09:07:55;98248.38;;;2.61;53.82
42603;BME280;28233;55.748;48.752;2024-03-08T09:09:58;98253.59;;;2.71;51.95
42603;BME280;28233;55.748;48.752;2024-03-08T09:12:01;98233.81;;;2.57;50.69
42603;BME280;28233;55.748;48.752;2024-03-08T09:14:04;98243.03;;;2.56;50.42
42603;BME280;28233;55.748;48.752;2024-03-08T09:16:07;98243.22;;;2.46;50.49
42603;BME280;28233;55.748;48.752;2024-03-08T09:18:10;98236.22;;;2.45;50.00
42603;BME280;28233;55.748;48.752;2024-03-08T09:20:13;98232.38;;;2.32;48.75
42603;BME280;28233;55.748;48.752;2024-03-08T09:22:17;98223.13;;;2.19;49.56
42603;BME280;28233;55.748;48.752;2024-03-08T09:24:20;98230.34;;;2.24;49.10
42603;BME280;28233;55.748;48.752;2024-03-08T09:26:23;98227.72;;;2.19;48.67
42603;BME280;28233;55.748;48.752;2024-03-08T09:28:31;98224.59;;;2.11;48.53
42603;BME280;28233;55.748;48.752;2024-03-08T09:30:33;98226.72;;;2.15;48.30
42603;BME280;28233;55.748;48.752;2024-03-08T09:32:38;98217.16;;;2.03;47.47
42603;BME280;28233;55.748;48.752;2024-03-08T09:34:40;98224.41;;;2.08;48.17
42603;BME280;28233;55.748;48.752;2024-03-08T09:36:43;98226.31;;;2.07;46.82
42603;BME280;28233;55.748;48.752;2024-03-08T09:38:46;98227.63;;;2.10;46.25
42603;BME280;28233;55.748;48.752;2024-03-08T09:40:50;98214.69;;;2.21;46.22
42603;BME280;28233;55.748;48.752;2024-03-08T09:42:53;98224.34;;;2.41;45.73
42603;BME280;28233;55.748;48.752;2024-03-08T09:44:58;98220.72;;;2.31;45.79
42603;BME280;28233;55.748;48.752;2024-03-08T09:47:01;98218.78;;;2.18;45.63
42603;BME280;28233;55.748;48.752;2024-03-08T09:49:07;98206.88;;;2.19;45.31
42603;BME280;28233;55.748;48.752;2024-03-08T09:51:10;98214.16;;;2.19;45.83
42603;BME280;28233;55.748;48.752;2024-03-08T09:53:17;98210.09;;;2.21;45.61
42603;BME280;28233;55.748;48.752;2024-03-08T09:55:21;98205.66;;;2.25;45.55
42603;BME280;28233;55.748;48.752;2024-03-08T09:57:25;98201.47;;;2.33;45.60
42603;BME280;28233;55.748;48.752;2024-03-08T09:59:28;98203.56;;;2.36;44.94
42603;BME280;28233;55.748;48.752;2024-03-08T10:01:31;98197.94;;;2.46;45.09
42603;BME280;28233;55.748;48.752;2024-03-08T10:03:34;98204.28;;;2.56;44.98
42603;BME280;28233;55.748;48.752;2024-03-08T10:05:37;98203.38;;;2.46;44.78
42603;BME280;28233;55.748;48.752;2024-03-08T10:07:40;98202.28;;;2.47;45.59
42603;BME280;28233;55.748;48.752;2024-03-08T10:09:43;98204.78;;;2.58;45.14
42603;BME280;28233;55.748;48.752;2024-03-08T10:11:56;98204.16;;;2.61;45.04
42603;BME280;28233;55.748;48.752;2024-03-08T10:14:03;98203.19;;;2.57;45.26
42603;BME280;28233;55.748;48.752;2024-03-08T10:16:08;98198.25;;;2.31;45.42
42603;BME280;28233;55.748;48.752;2024-03-08T10:18:11;98206.25;;;2.22;45.80
42603;BME280;28233;55.748;48.752;2024-03-08T10:20:18;98196.31;;;2.18;45.90
42603;BME280;28233;55.748;48.752;2024-03-08T10:22:21;98201.63;;;2.23;46.44
42603;BME280;28233;55.748;48.752;2024-03-08T10:24:24;98199.53;;;2.20;45.79
42603;BME280;28233;55.748;48.752;2024-03-08T10:26:27;98202.56;;;2.32;45.86
42603;BME280;28233;55.748;48.752;2024-03-08T10:28:30;98196.97;;;2.42;45.83
42603;BME280;28233;55.748;48.752;2024-03-08T10:30:33;98207.06;;;2.23;46.23
42603;BME280;28233;55.748;48.752;2024-03-08T10:32:36;98192.41;;;2.24;46.75
42603;BME280;28233;55.748;48.752;2024-03-08T10:34:40;98198.44;;;2.35;46.45
42603;BME280;28233;55.748;48.752;2024-03-08T10:36:45;98207.25;;;2.13;46.94
42603;BME280;28233;55.748;48.752;2024-03-08T10:38:53;98198.56;;;1.97;47.36
42603;BME280;28233;55.748;48.752;2024-03-08T10:41:00;98205.19;;;1.90;47.31
42603;BME280;28233;55.748;48.752;2024-03-08T10:43:04;98195.34;;;1.95;46.99
42603;BME280;28233;55.748;48.752;2024-03-08T10:45:15;98205.03;;;2.01;46.71
42603;BME280;28233;55.748;48.752;2024-03-08T10:47:26;98207.56;;;1.78;47.40
42603;BME280;28233;55.748;48.752;2024-03-08T10:49:38;98212.50;;;1.57;48.32